sensor_id;sensor_type;location;lat;lon;timestamp;P1;durP1;ratioP1;P2;durP2;ratioP2
18838;SDS011;9548;56.920;14.804;2023-03-14T00:01:08;14.93;;;1.75;;
18838;SDS011;9548;56.920;14.804;2023-03-14T00:03:36;10.57;;;1.48;;
18838;SDS011;9548;56.920;14.804;2023-03-14T00:06:03;8.65;;;1.50;;
18838;SDS011;9548;56.920;14.804;2023-03-14T00:08:31;7.57;;;1.35;;
18838;SDS011;9548;56.920;14.804;2023-03-14T00:11:03;8.88;;;1.40;;
18838;SDS011;9548;56.920;14.804;2023-03-14T00:13:30;13.50;;;1.60;;
18838;SDS011;9548;56.920;14.804;2023-03-14T00:16:01;11.85;;;1.40;;
18838;SDS011;9548;56.920;14.804;2023-03-14T00:18:28;19.15;;;1.67;;
18838;SDS011;9548;56.920;14.804;2023-03-14T00:20:57;12.07;;;2.00;;
18838;SDS011;9548;56.920;14.804;2023-03-14T00:23:26;10.35;;;1.40;;
18838;SDS011;9548;56.920;14.804;2023-03-14T00:25:53;10.15;;;1.67;;
18838;SDS011;9548;56.920;14.804;2023-03-14T00:28:25;8.68;;;1.45;;
18838;SDS011;9548;56.920;14.804;2023-03-14T00:30:53;8.50;;;1.45;;
18838;SDS011;9548;56.920;14.804;2023-03-14T00:33:20;11.73;;;1.83;;
18838;SDS011;9548;56.920;14.804;2023-03-14T00:35:52;12.30;;;2.20;;
18838;SDS011;9548;56.920;14.804;2023-03-14T00:38:19;11.18;;;2.10;;
18838;SDS011;9548;56.920;14.804;2023-03-14T00:40:46;20.42;;;2.58;;
18838;SDS011;9548;56.920;14.804;2023-03-14T00:43:13;11.15;;;1.92;;
18838;SDS011;9548;56.920;14.804;2023-03-14T00:45:42;13.80;;;2.38;;
18838;SDS011;9548;56.920;14.804;2023-03-14T00:48:09;18.73;;;2.70;;
18838;SDS011;9548;56.920;14.804;2023-03-14T00:50:36;14.73;;;2.13;;
18838;SDS011;9548;56.920;14.804;2023-03-14T00:53:03;20.98;;;2.72;;
18838;SDS011;9548;56.920;14.804;2023-03-14T00:55:30;27.38;;;2.65;;
18838;SDS011;9548;56.920;14.804;2023-03-14T00:57:57;15.27;;;1.77;;
18838;SDS011;9548;56.920;14.804;2023-03-14T01:00:24;12.25;;;2.45;;
18838;SDS011;9548;56.920;14.804;2023-03-14T01:02:52;20.17;;;2.60;;
18838;SDS011;9548;56.920;14.804;2023-03-14T01:05:19;17.90;;;2.38;;
18838;SDS011;9548;56.920;14.804;2023-03-14T01:07:48;16.73;;;2.90;;
18838;SDS011;9548;56.920;14.804;2023-03-14T01:10:15;14.20;;;2.40;;
18838;SDS011;9548;56.920;14.804;2023-03-14T01:12:42;9.60;;;1.80;;
18838;SDS011;9548;56.920;14.804;2023-03-14T01:15:09;21.80;;;2.50;;
18838;SDS011;9548;56.920;14.804;2023-03-14T01:17:36;17.48;;;2.65;;
18838;SDS011;9548;56.920;14.804;2023-03-14T01:20:06;24.17;;;2.83;;
18838;SDS011;9548;56.920;14.804;2023-03-14T01:22:35;17.40;;;2.42;;
18838;SDS011;9548;56.920;14.804;2023-03-14T01:25:04;16.50;;;2.65;;
18838;SDS011;9548;56.920;14.804;2023-03-14T01:27:31;22.33;;;3.03;;
18838;SDS011;9548;56.920;14.804;2023-03-14T01:29:58;23.58;;;2.45;;
18838;SDS011;9548;56.920;14.804;2023-03-14T01:32:25;16.60;;;2.80;;
18838;SDS011;9548;56.920;14.804;2023-03-14T01:34:52;23.63;;;3.15;;
18838;SDS011;9548;56.920;14.804;2023-03-14T01:37:21;17.08;;;2.50;;
18838;SDS011;9548;56.920;14.804;2023-03-14T01:39:48;25.33;;;3.25;;
18838;SDS011;9548;56.920;14.804;2023-03-14T01:42:15;18.17;;;2.80;;
18838;SDS011;9548;56.920;14.804;2023-03-14T01:44:49;21.08;;;2.97;;
18838;SDS011;9548;56.920;14.804;2023-03-14T01:47:17;16.13;;;2.70;;
18838;SDS011;9548;56.920;14.804;2023-03-14T01:49:45;16.92;;;2.95;;
18838;SDS011;9548;56.920;14.804;2023-03-14T01:52:13;21.33;;;2.42;;
18838;SDS011;9548;56.920;14.804;2023-03-14T01:54:44;21.00;;;2.88;;
18838;SDS011;9548;56.920;14.804;2023-03-14T01:57:16;24.77;;;2.65;;
18838;SDS011;9548;56.920;14.804;2023-03-14T01:59:46;17.92;;;3.00;;
18838;SDS011;9548;56.920;14.804;2023-03-14T02:02:17;19.30;;;2.65;;
18838;SDS011;9548;56.920;14.804;2023-03-14T02:04:44;12.98;;;1.60;;
18838;SDS011;9548;56.920;14.804;2023-03-14T02:07:12;20.70;;;2.92;;
18838;SDS011;9548;56.920;14.804;2023-03-14T02:09:43;20.73;;;3.85;;
18838;SDS011;9548;56.920;14.804;2023-03-14T02:12:12;24.95;;;3.28;;
18838;SDS011;9548;56.920;14.804;2023-03-14T02:14:42;13.10;;;2.53;;
18838;SDS011;9548;56.920;14.804;2023-03-14T02:17:13;20.50;;;2.03;;
18838;SDS011;9548;56.920;14.804;2023-03-14T02:19:46;14.57;;;2.47;;
18838;SDS011;9548;56.920;14.804;2023-03-14T02:22:22;19.95;;;2.78;;
18838;SDS011;9548;56.920;14.804;2023-03-14T02:24:53;17.73;;;2.40;;
18838;SDS011;9548;56.920;14.804;2023-03-14T02:27:27;21.08;;;3.40;;
18838;SDS011;9548;56.920;14.804;2023-03-14T02:29:54;12.80;;;2.38;;
18838;SDS011;9548;56.920;14.804;2023-03-14T02:32:25;15.35;;;1.95;;
18838;SDS011;9548;56.920;14.804;2023-03-14T02:34:54;18.75;;;2.28;;
18838;SDS011;9548;56.920;14.804;2023-03-14T02:37:23;22.83;;;3.08;;
18838;SDS011;9548;56.920;14.804;2023-03-14T02:39:53;14.88;;;2.92;;
18838;SDS011;9548;56.920;14.804;2023-03-14T02:42:20;24.00;;;3.47;;
18838;SDS011;9548;56.920;14.804;2023-03-14T02:44:50;23.38;;;2.63;;
18838;SDS011;9548;56.920;14.804;2023-03-14T02:47:20;30.23;;;3.58;;
18838;SDS011;9548;56.920;14.804;2023-03-14T02:49:53;23.73;;;2.88;;
18838;SDS011;9548;56.920;14.804;2023-03-14T02:52:26;16.60;;;2.78;;
18838;SDS011;9548;56.920;14.804;2023-03-14T02:54:53;27.25;;;3.08;;
18838;SDS011;9548;56.920;14.804;2023-03-14T02:57:20;20.15;;;2.58;;
18838;SDS011;9548;56.920;14.804;2023-03-14T02:59:47;26.33;;;3.15;;
18838;SDS011;9548;56.920;14.804;2023-03-14T03:02:16;29.17;;;3.10;;
18838;SDS011;9548;56.920;14.804;2023-03-14T03:04:43;20.52;;;3.00;;
18838;SDS011;9548;56.920;14.804;2023-03-14T03:07:10;26.17;;;3.10;;
18838;SDS011;9548;56.920;14.804;2023-03-14T03:09:37;26.70;;;3.22;;
18838;SDS011;9548;56.920;14.804;2023-03-14T03:12:04;19.90;;;3.13;;
18838;SDS011;9548;56.920;14.804;2023-03-14T03:14:31;21.00;;;3.47;;
18838;SDS011;9548;56.920;14.804;2023-03-14T03:16:59;22.73;;;3.20;;
18838;SDS011;9548;56.920;14.804;2023-03-14T03:19:26;31.38;;;3.83;;
18838;SDS011;9548;56.920;14.804;2023-03-14T03:21:53;28.08;;;3.90;;
18838;SDS011;9548;56.920;14.804;2023-03-14T03:24:20;35.03;;;5.53;;
18838;SDS011;9548;56.920;14.804;2023-03-14T03:26:47;24.98;;;3.67;;
18838;SDS011;9548;56.920;14.804;2023-03-14T03:29:14;38.85;;;4.93;;
18838;SDS011;9548;56.920;14.804;2023-03-14T03:31:41;35.63;;;4.60;;
18838;SDS011;9548;56.920;14.804;2023-03-14T03:34:11;28.85;;;4.00;;
18838;SDS011;9548;56.920;14.804;2023-03-14T03:36:39;27.33;;;4.57;;
18838;SDS011;9548;56.920;14.804;2023-03-14T03:39:06;31.52;;;3.80;;
18838;SDS011;9548;56.920;14.804;2023-03-14T03:41:33;25.02;;;3.97;;
18838;SDS011;9548;56.920;14.804;2023-03-14T03:44:00;25.60;;;3.70;;
18838;SDS011;9548;56.920;14.804;2023-03-14T03:46:27;34.53;;;3.78;;
18838;SDS011;9548;56.920;14.804;2023-03-14T03:48:54;25.77;;;3.70;;
18838;SDS011;9548;56.920;14.804;2023-03-14T03:51:23;29.17;;;4.13;;
18838;SDS011;9548;56.920;14.804;2023-03-14T03:53:50;26.52;;;3.90;;
18838;SDS011;9548;56.920;14.804;2023-03-14T03:56:17;32.00;;;4.18;;
18838;SDS011;9548;56.920;14.804;2023-03-14T03:58:44;24.23;;;4.45;;
18838;SDS011;9548;56.920;14.804;2023-03-14T04:01:11;27.90;;;4.32;;
18838;SDS011;9548;56.920;14.804;2023-03-14T04:03:38;27.20;;;3.60;;
18838;SDS011;9548;56.920;14.804;2023-03-14T04:06:06;26.98;;;4.35;;
18838;SDS011;9548;56.920;14.804;2023-03-14T04:08:35;25.95;;;3.70;;
18838;SDS011;9548;56.920;14.804;2023-03-14T04:11:04;18.83;;;3.15;;
18838;SDS011;9548;56.920;14.804;2023-03-14T04:13:31;26.70;;;4.03;;
18838;SDS011;9548;56.920;14.804;2023-03-14T04:15:58;32.55;;;3.70;;
18838;SDS011;9548;56.920;14.804;2023-03-14T04:18:25;20.40;;;3.67;;
18838;SDS011;9548;56.920;14.804;2023-03-14T04:20:54;23.13;;;3.47;;
18838;SDS011;9548;56.920;14.804;2023-03-14T04:23:22;28.27;;;3.47;;
18838;SDS011;9548;56.920;14.804;2023-03-14T04:25:51;24.67;;;3.42;;
18838;SDS011;9548;56.920;14.804;2023-03-14T04:28:19;23.42;;;2.95;;
18838;SDS011;9548;56.920;14.804;2023-03-14T04:30:46;19.42;;;2.53;;
18838;SDS011;9548;56.920;14.804;2023-03-14T04:33:12;29.48;;;3.78;;
18838;SDS011;9548;56.920;14.804;2023-03-14T04:35:42;38.47;;;4.03;;
18838;SDS011;9548;56.920;14.804;2023-03-14T04:38:09;22.70;;;3.22;;
18838;SDS011;9548;56.920;14.804;2023-03-14T04:40:36;27.63;;;3.83;;
18838;SDS011;9548;56.920;14.804;2023-03-14T04:43:05;27.38;;;3.50;;
18838;SDS011;9548;56.920;14.804;2023-03-14T04:45:31;35.78;;;4.35;;
18838;SDS011;9548;56.920;14.804;2023-03-14T04:47:58;31.75;;;3.53;;
18838;SDS011;9548;56.920;14.804;2023-03-14T04:50:25;32.00;;;3.70;;
18838;SDS011;9548;56.920;14.804;2023-03-14T04:52:52;29.35;;;4.35;;
18838;SDS011;9548;56.920;14.804;2023-03-14T04:55:19;26.33;;;3.08;;
18838;SDS011;9548;56.920;14.804;2023-03-14T04:57:46;26.02;;;3.67;;
18838;SDS011;9548;56.920;14.804;2023-03-14T05:00:14;35.13;;;3.90;;
18838;SDS011;9548;56.920;14.804;2023-03-14T05:02:43;28.67;;;4.03;;
18838;SDS011;9548;56.920;14.804;2023-03-14T05:05:10;30.35;;;3.67;;
18838;SDS011;9548;56.920;14.804;2023-03-14T05:07:37;31.30;;;3.95;;
18838;SDS011;9548;56.920;14.804;2023-03-14T05:10:04;24.02;;;3.22;;
18838;SDS011;9548;56.920;14.804;2023-03-14T05:12:31;32.45;;;3.83;;
18838;SDS011;9548;56.920;14.804;2023-03-14T05:14:58;30.77;;;4.18;;
18838;SDS011;9548;56.920;14.804;2023-03-14T05:17:27;19.25;;;3.95;;
18838;SDS011;9548;56.920;14.804;2023-03-14T05:19:53;25.70;;;3.10;;
18838;SDS011;9548;56.920;14.804;2023-03-14T05:22:20;19.05;;;2.95;;
18838;SDS011;9548;56.920;14.804;2023-03-14T05:24:47;19.80;;;3.08;;
18838;SDS011;9548;56.920;14.804;2023-03-14T05:27:14;25.50;;;2.70;;
18838;SDS011;9548;56.920;14.804;2023-03-14T05:29:41;27.30;;;3.53;;
18838;SDS011;9548;56.920;14.804;2023-03-14T05:32:08;21.55;;;2.63;;
18838;SDS011;9548;56.920;14.804;2023-03-14T05:34:36;19.63;;;3.00;;
18838;SDS011;9548;56.920;14.804;2023-03-14T05:37:03;26.52;;;3.00;;
18838;SDS011;9548;56.920;14.804;2023-03-14T05:39:30;22.55;;;3.28;;
18838;SDS011;9548;56.920;14.804;2023-03-14T05:41:57;24.85;;;3.25;;
18838;SDS011;9548;56.920;14.804;2023-03-14T05:44:24;15.85;;;2.70;;
18838;SDS011;9548;56.920;14.804;2023-03-14T05:46:51;22.45;;;2.50;;
18838;SDS011;9548;56.920;14.804;2023-03-14T05:49:18;19.88;;;3.08;;
18838;SDS011;9548;56.920;14.804;2023-03-14T05:51:46;31.65;;;3.25;;
18838;SDS011;9548;56.920;14.804;2023-03-14T05:54:13;24.55;;;3.47;;
18838;SDS011;9548;56.920;14.804;2023-03-14T05:56:40;15.57;;;2.80;;
18838;SDS011;9548;56.920;14.804;2023-03-14T05:59:07;24.38;;;3.70;;
18838;SDS011;9548;56.920;14.804;2023-03-14T06:01:35;11.20;;;2.40;;
18838;SDS011;9548;56.920;14.804;2023-03-14T06:04:01;18.25;;;2.35;;
18838;SDS011;9548;56.920;14.804;2023-03-14T06:06:28;15.13;;;2.65;;
18838;SDS011;9548;56.920;14.804;2023-03-14T06:08:57;17.13;;;3.25;;
18838;SDS011;9548;56.920;14.804;2023-03-14T06:11:24;14.15;;;2.35;;
18838;SDS011;9548;56.920;14.804;2023-03-14T06:13:51;19.38;;;3.10;;
18838;SDS011;9548;56.920;14.804;2023-03-14T06:16:18;25.15;;;3.08;;
18838;SDS011;9548;56.920;14.804;2023-03-14T06:18:45;23.45;;;3.42;;
18838;SDS011;9548;56.920;14.804;2023-03-14T06:21:14;14.18;;;2.28;;
18838;SDS011;9548;56.920;14.804;2023-03-14T06:23:40;28.80;;;2.95;;
18838;SDS011;9548;56.920;14.804;2023-03-14T06:26:09;13.98;;;2.97;;
18838;SDS011;9548;56.920;14.804;2023-03-14T06:28:36;17.73;;;2.65;;
18838;SDS011;9548;56.920;14.804;2023-03-14T06:31:03;26.63;;;3.45;;
18838;SDS011;9548;56.920;14.804;2023-03-14T06:33:31;21.45;;;3.25;;
18838;SDS011;9548;56.920;14.804;2023-03-14T06:35:58;21.90;;;3.00;;
18838;SDS011;9548;56.920;14.804;2023-03-14T06:38:25;17.65;;;2.88;;
18838;SDS011;9548;56.920;14.804;2023-03-14T06:40:52;21.70;;;2.88;;
18838;SDS011;9548;56.920;14.804;2023-03-14T06:43:20;17.13;;;3.33;;
18838;SDS011;9548;56.920;14.804;2023-03-14T06:45:47;19.38;;;3.05;;
18838;SDS011;9548;56.920;14.804;2023-03-14T06:48:14;16.98;;;3.20;;
18838;SDS011;9548;56.920;14.804;2023-03-14T06:50:41;17.35;;;2.83;;
18838;SDS011;9548;56.920;14.804;2023-03-14T06:53:08;17.10;;;3.22;;
18838;SDS011;9548;56.920;14.804;2023-03-14T06:55:35;15.50;;;3.20;;
18838;SDS011;9548;56.920;14.804;2023-03-14T06:58:02;20.35;;;3.38;;
18838;SDS011;9548;56.920;14.804;2023-03-14T07:00:31;17.90;;;3.10;;
18838;SDS011;9548;56.920;14.804;2023-03-14T07:02:58;14.88;;;2.97;;
18838;SDS011;9548;56.920;14.804;2023-03-14T07:05:25;25.92;;;3.22;;
18838;SDS011;9548;56.920;14.804;2023-03-14T07:07:51;18.27;;;2.92;;
18838;SDS011;9548;56.920;14.804;2023-03-14T07:10:19;20.00;;;3.13;;
18838;SDS011;9548;56.920;14.804;2023-03-14T07:12:46;27.70;;;3.10;;
18838;SDS011;9548;56.920;14.804;2023-03-14T07:15:13;24.92;;;3.78;;
18838;SDS011;9548;56.920;14.804;2023-03-14T07:17:41;21.20;;;3.15;;
18838;SDS011;9548;56.920;14.804;2023-03-14T07:20:08;22.42;;;3.13;;
18838;SDS011;9548;56.920;14.804;2023-03-14T07:22:36;19.08;;;2.78;;
18838;SDS011;9548;56.920;14.804;2023-03-14T07:25:03;17.00;;;3.50;;
18838;SDS011;9548;56.920;14.804;2023-03-14T07:27:30;30.52;;;3.05;;
18838;SDS011;9548;56.920;14.804;2023-03-14T07:29:57;20.33;;;3.17;;
18838;SDS011;9548;56.920;14.804;2023-03-14T07:32:24;21.65;;;3.05;;
18838;SDS011;9548;56.920;14.804;2023-03-14T07:34:52;20.48;;;2.88;;
18838;SDS011;9548;56.920;14.804;2023-03-14T07:37:19;13.82;;;2.95;;
18838;SDS011;9548;56.920;14.804;2023-03-14T07:39:46;15.82;;;3.40;;
18838;SDS011;9548;56.920;14.804;2023-03-14T07:42:13;17.80;;;2.83;;
18838;SDS011;9548;56.920;14.804;2023-03-14T07:44:40;18.67;;;3.38;;
18838;SDS011;9548;56.920;14.804;2023-03-14T07:47:07;18.77;;;3.30;;
18838;SDS011;9548;56.920;14.804;2023-03-14T07:49:34;23.48;;;3.20;;
18838;SDS011;9548;56.920;14.804;2023-03-14T07:52:02;20.10;;;3.00;;
18838;SDS011;9548;56.920;14.804;2023-03-14T07:54:29;19.30;;;3.47;;
18838;SDS011;9548;56.920;14.804;2023-03-14T07:56:56;17.52;;;2.78;;
18838;SDS011;9548;56.920;14.804;2023-03-14T07:59:23;15.57;;;3.40;;
18838;SDS011;9548;56.920;14.804;2023-03-14T08:01:50;13.75;;;2.92;;
18838;SDS011;9548;56.920;14.804;2023-03-14T08:04:17;23.95;;;3.83;;
18838;SDS011;9548;56.920;14.804;2023-03-14T08:06:44;25.10;;;3.35;;
18838;SDS011;9548;56.920;14.804;2023-03-14T08:09:13;24.23;;;3.63;;
18838;SDS011;9548;56.920;14.804;2023-03-14T08:11:40;21.98;;;3.67;;
18838;SDS011;9548;56.920;14.804;2023-03-14T08:14:07;18.95;;;3.10;;
18838;SDS011;9548;56.920;14.804;2023-03-14T08:16:34;26.27;;;3.67;;
18838;SDS011;9548;56.920;14.804;2023-03-14T08:19:01;20.95;;;3.40;;
18838;SDS011;9548;56.920;14.804;2023-03-14T08:21:27;23.20;;;3.65;;
18838;SDS011;9548;56.920;14.804;2023-03-14T08:23:54;16.02;;;3.35;;
18838;SDS011;9548;56.920;14.804;2023-03-14T08:26:23;25.67;;;4.10;;
18838;SDS011;9548;56.920;14.804;2023-03-14T08:28:49;23.38;;;3.75;;
18838;SDS011;9548;56.920;14.804;2023-03-14T08:31:16;25.83;;;3.47;;
18838;SDS011;9548;56.920;14.804;2023-03-14T08:33:43;20.15;;;3.63;;
18838;SDS011;9548;56.920;14.804;2023-03-14T08:36:10;20.55;;;3.38;;
18838;SDS011;9548;56.920;14.804;2023-03-14T08:38:37;13.75;;;2.72;;
18838;SDS011;9548;56.920;14.804;2023-03-14T08:41:07;14.80;;;2.70;;
18838;SDS011;9548;56.920;14.804;2023-03-14T08:43:36;23.90;;;3.20;;
18838;SDS011;9548;56.920;14.804;2023-03-14T08:46:03;14.25;;;2.60;;
18838;SDS011;9548;56.920;14.804;2023-03-14T08:48:30;18.85;;;3.35;;
18838;SDS011;9548;56.920;14.804;2023-03-14T08:51:03;10.45;;;2.25;;
18838;SDS011;9548;56.920;14.804;2023-03-14T08:53:31;17.73;;;3.00;;
18838;SDS011;9548;56.920;14.804;2023-03-14T08:55:58;15.20;;;4.63;;
18838;SDS011;9548;56.920;14.804;2023-03-14T08:58:25;12.40;;;2.65;;
18838;SDS011;9548;56.920;14.804;2023-03-14T09:00:53;13.32;;;2.75;;
18838;SDS011;9548;56.920;14.804;2023-03-14T09:03:20;15.43;;;2.78;;
18838;SDS011;9548;56.920;14.804;2023-03-14T09:05:48;13.38;;;2.30;;
18838;SDS011;9548;56.920;14.804;2023-03-14T09:08:15;10.00;;;2.35;;
18838;SDS011;9548;56.920;14.804;2023-03-14T09:10:42;16.10;;;2.78;;
18838;SDS011;9548;56.920;14.804;2023-03-14T09:13:08;9.82;;;2.17;;
18838;SDS011;9548;56.920;14.804;2023-03-14T09:15:36;13.48;;;3.50;;
18838;SDS011;9548;56.920;14.804;2023-03-14T09:18:04;11.10;;;2.50;;
18838;SDS011;9548;56.920;14.804;2023-03-14T09:20:31;13.88;;;2.20;;
18838;SDS011;9548;56.920;14.804;2023-03-14T09:22:58;14.25;;;2.72;;
18838;SDS011;9548;56.920;14.804;2023-03-14T09:25:25;19.27;;;3.17;;
18838;SDS011;9548;56.920;14.804;2023-03-14T09:27:52;16.63;;;3.22;;
18838;SDS011;9548;56.920;14.804;2023-03-14T09:30:19;11.75;;;2.45;;
18838;SDS011;9548;56.920;14.804;2023-03-14T09:32:45;13.45;;;3.35;;
18838;SDS011;9548;56.920;14.804;2023-03-14T09:35:14;14.57;;;2.85;;
18838;SDS011;9548;56.920;14.804;2023-03-14T09:37:41;17.60;;;2.70;;
18838;SDS011;9548;56.920;14.804;2023-03-14T09:40:10;15.80;;;2.97;;
18838;SDS011;9548;56.920;14.804;2023-03-14T09:42:39;11.15;;;2.35;;
18838;SDS011;9548;56.920;14.804;2023-03-14T09:45:09;13.80;;;2.42;;
18838;SDS011;9548;56.920;14.804;2023-03-14T09:47:39;17.23;;;3.03;;
18838;SDS011;9548;56.920;14.804;2023-03-14T09:50:09;13.50;;;2.97;;
18838;SDS011;9548;56.920;14.804;2023-03-14T09:52:41;15.88;;;2.50;;
18838;SDS011;9548;56.920;14.804;2023-03-14T09:55:12;11.98;;;2.80;;
18838;SDS011;9548;56.920;14.804;2023-03-14T09:57:41;11.85;;;2.90;;
18838;SDS011;9548;56.920;14.804;2023-03-14T10:00:12;15.77;;;2.45;;
18838;SDS011;9548;56.920;14.804;2023-03-14T10:02:42;7.57;;;2.45;;
18838;SDS011;9548;56.920;14.804;2023-03-14T10:05:15;14.57;;;2.35;;
18838;SDS011;9548;56.920;14.804;2023-03-14T10:07:44;19.20;;;2.60;;
18838;SDS011;9548;56.920;14.804;2023-03-14T10:10:11;16.33;;;2.85;;
18838;SDS011;9548;56.920;14.804;2023-03-14T10:12:44;15.70;;;2.92;;
18838;SDS011;9548;56.920;14.804;2023-03-14T10:15:12;13.45;;;2.63;;
18838;SDS011;9548;56.920;14.804;2023-03-14T10:17:43;11.60;;;2.70;;
18838;SDS011;9548;56.920;14.804;2023-03-14T10:22:58;9.50;;;2.63;;
18838;SDS011;9548;56.920;14.804;2023-03-14T10:25:27;15.40;;;2.78;;
18838;SDS011;9548;56.920;14.804;2023-03-14T10:27:55;13.73;;;2.92;;
18838;SDS011;9548;56.920;14.804;2023-03-14T10:30:37;9.85;;;2.60;;
18838;SDS011;9548;56.920;14.804;2023-03-14T10:33:09;15.30;;;2.97;;
18838;SDS011;9548;56.920;14.804;2023-03-14T10:35:39;16.25;;;3.45;;
18838;SDS011;9548;56.920;14.804;2023-03-14T10:38:10;15.98;;;3.00;;
18838;SDS011;9548;56.920;14.804;2023-03-14T10:40:40;16.25;;;2.90;;
18838;SDS011;9548;56.920;14.804;2023-03-14T10:43:14;13.40;;;2.92;;
18838;SDS011;9548;56.920;14.804;2023-03-14T10:45:51;6.47;;;2.63;;
18838;SDS011;9548;56.920;14.804;2023-03-14T10:48:23;10.60;;;2.70;;
18838;SDS011;9548;56.920;14.804;2023-03-14T10:50:57;16.05;;;2.72;;
18838;SDS011;9548;56.920;14.804;2023-03-14T10:53:32;10.20;;;3.10;;
18838;SDS011;9548;56.920;14.804;2023-03-14T10:56:02;7.28;;;2.85;;
18838;SDS011;9548;56.920;14.804;2023-03-14T10:58:31;13.50;;;2.90;;
18838;SDS011;9548;56.920;14.804;2023-03-14T11:01:08;13.45;;;2.80;;
18838;SDS011;9548;56.920;14.804;2023-03-14T11:03:49;10.98;;;2.88;;
18838;SDS011;9548;56.920;14.804;2023-03-14T11:06:23;7.05;;;2.20;;
18838;SDS011;9548;56.920;14.804;2023-03-14T11:08:57;9.23;;;2.75;;
18838;SDS011;9548;56.920;14.804;2023-03-14T11:11:31;9.27;;;2.80;;
18838;SDS011;9548;56.920;14.804;2023-03-14T11:14:01;11.20;;;2.67;;
18838;SDS011;9548;56.920;14.804;2023-03-14T11:16:42;10.20;;;2.80;;
18838;SDS011;9548;56.920;14.804;2023-03-14T11:19:36;7.72;;;2.50;;
18838;SDS011;9548;56.920;14.804;2023-03-14T11:22:14;4.00;;;0.70;;
18838;SDS011;9548;56.920;14.804;2023-03-14T11:24:49;0.30;;;0.30;;
18838;SDS011;9548;56.920;14.804;2023-03-14T11:27:33;0.88;;;0.30;;
18838;SDS011;9548;56.920;14.804;2023-03-14T11:30:13;1.38;;;0.30;;
18838;SDS011;9548;56.920;14.804;2023-03-14T11:32:45;1.15;;;0.28;;
18838;SDS011;9548;56.920;14.804;2023-03-14T11:35:20;0.35;;;0.00;;
18838;SDS011;9548;56.920;14.804;2023-03-14T11:37:54;0.57;;;0.10;;
18838;SDS011;9548;56.920;14.804;2023-03-14T11:40:27;0.00;;;0.00;;
18838;SDS011;9548;56.920;14.804;2023-03-14T11:42:56;0.00;;;0.00;;
18838;SDS011;9548;56.920;14.804;2023-03-14T11:45:33;0.05;;;0.00;;
18838;SDS011;9548;56.920;14.804;2023-03-14T11:48:07;0.88;;;0.10;;
18838;SDS011;9548;56.920;14.804;2023-03-14T11:50:44;0.20;;;0.10;;
18838;SDS011;9548;56.920;14.804;2023-03-14T11:53:16;1.75;;;0.10;;
18838;SDS011;9548;56.920;14.804;2023-03-14T11:55:46;0.00;;;0.00;;
18838;SDS011;9548;56.920;14.804;2023-03-14T11:58:16;0.00;;;0.00;;
18838;SDS011;9548;56.920;14.804;2023-03-14T12:00:46;0.57;;;0.10;;
18838;SDS011;9548;56.920;14.804;2023-03-14T12:03:17;0.10;;;0.10;;
18838;SDS011;9548;56.920;14.804;2023-03-14T12:05:52;0.40;;;0.10;;
18838;SDS011;9548;56.920;14.804;2023-03-14T12:08:43;0.00;;;0.00;;
18838;SDS011;9548;56.920;14.804;2023-03-14T12:11:30;0.00;;;0.00;;
18838;SDS011;9548;56.920;14.804;2023-03-14T12:14:00;0.00;;;0.00;;
18838;SDS011;9548;56.920;14.804;2023-03-14T12:16:37;0.00;;;0.00;;
18838;SDS011;9548;56.920;14.804;2023-03-14T12:22:07;0.10;;;0.00;;
18838;SDS011;9548;56.920;14.804;2023-03-14T12:24:51;0.00;;;0.00;;
18838;SDS011;9548;56.920;14.804;2023-03-14T12:30:27;0.15;;;0.03;;
18838;SDS011;9548;56.920;14.804;2023-03-14T12:33:19;0.10;;;0.05;;
18838;SDS011;9548;56.920;14.804;2023-03-14T12:36:11;0.00;;;0.00;;
18838;SDS011;9548;56.920;14.804;2023-03-14T12:39:11;0.65;;;0.10;;
18838;SDS011;9548;56.920;14.804;2023-03-14T12:41:48;0.10;;;0.00;;
18838;SDS011;9548;56.920;14.804;2023-03-14T12:50:13;0.10;;;0.10;;
18838;SDS011;9548;56.920;14.804;2023-03-14T12:52:47;0.28;;;0.15;;
18838;SDS011;9548;56.920;14.804;2023-03-14T12:55:27;2.38;;;0.20;;
18838;SDS011;9548;56.920;14.804;2023-03-14T12:58:04;0.93;;;0.10;;
18838;SDS011;9548;56.920;14.804;2023-03-14T13:00:39;0.63;;;0.10;;
18838;SDS011;9548;56.920;14.804;2023-03-14T13:03:17;0.52;;;0.15;;
18838;SDS011;9548;56.920;14.804;2023-03-14T13:05:54;0.70;;;0.20;;
18838;SDS011;9548;56.920;14.804;2023-03-14T13:08:32;1.65;;;0.20;;
18838;SDS011;9548;56.920;14.804;2023-03-14T13:11:05;1.40;;;0.20;;
18838;SDS011;9548;56.920;14.804;2023-03-14T13:13:36;5.82;;;0.50;;
18838;SDS011;9548;56.920;14.804;2023-03-14T13:16:09;1.25;;;0.20;;
18838;SDS011;9548;56.920;14.804;2023-03-14T13:18:41;3.65;;;0.35;;
18838;SDS011;9548;56.920;14.804;2023-03-14T13:21:11;2.47;;;0.40;;
18838;SDS011;9548;56.920;14.804;2023-03-14T13:23:42;3.58;;;0.60;;
18838;SDS011;9548;56.920;14.804;2023-03-14T13:26:22;2.60;;;0.57;;
18838;SDS011;9548;56.920;14.804;2023-03-14T13:28:53;3.33;;;0.60;;
18838;SDS011;9548;56.920;14.804;2023-03-14T13:31:21;2.20;;;0.47;;
18838;SDS011;9548;56.920;14.804;2023-03-14T13:33:59;2.95;;;0.52;;
18838;SDS011;9548;56.920;14.804;2023-03-14T13:36:26;5.32;;;0.73;;
18838;SDS011;9548;56.920;14.804;2023-03-14T13:38:57;3.03;;;0.50;;
18838;SDS011;9548;56.920;14.804;2023-03-14T13:41:26;3.33;;;0.77;;
18838;SDS011;9548;56.920;14.804;2023-03-14T13:43:58;4.97;;;0.82;;
18838;SDS011;9548;56.920;14.804;2023-03-14T13:46:30;3.63;;;0.75;;
18838;SDS011;9548;56.920;14.804;2023-03-14T13:49:00;3.53;;;0.65;;
18838;SDS011;9548;56.920;14.804;2023-03-14T13:51:29;8.20;;;1.15;;
18838;SDS011;9548;56.920;14.804;2023-03-14T13:53:59;4.55;;;0.55;;
18838;SDS011;9548;56.920;14.804;2023-03-14T13:56:28;7.25;;;0.70;;
18838;SDS011;9548;56.920;14.804;2023-03-14T13:58:58;3.20;;;0.63;;
18838;SDS011;9548;56.920;14.804;2023-03-14T14:01:25;4.50;;;0.90;;
18838;SDS011;9548;56.920;14.804;2023-03-14T14:03:56;6.22;;;1.08;;
18838;SDS011;9548;56.920;14.804;2023-03-14T14:06:26;3.50;;;1.02;;
18838;SDS011;9548;56.920;14.804;2023-03-14T14:08:56;8.43;;;0.80;;
18838;SDS011;9548;56.920;14.804;2023-03-14T14:11:31;4.28;;;0.60;;
18838;SDS011;9548;56.920;14.804;2023-03-14T14:14:05;3.58;;;0.98;;
18838;SDS011;9548;56.920;14.804;2023-03-14T14:16:37;7.82;;;0.82;;
18838;SDS011;9548;56.920;14.804;2023-03-14T14:19:04;7.32;;;1.30;;
18838;SDS011;9548;56.920;14.804;2023-03-14T14:21:31;11.43;;;0.93;;
18838;SDS011;9548;56.920;14.804;2023-03-14T14:23:59;7.07;;;1.00;;
18838;SDS011;9548;56.920;14.804;2023-03-14T14:26:26;7.03;;;0.82;;
18838;SDS011;9548;56.920;14.804;2023-03-14T14:29:00;4.38;;;0.80;;
18838;SDS011;9548;56.920;14.804;2023-03-14T14:31:30;7.47;;;1.02;;
18838;SDS011;9548;56.920;14.804;2023-03-14T14:33:57;5.57;;;1.15;;
18838;SDS011;9548;56.920;14.804;2023-03-14T14:36:26;8.50;;;1.23;;
18838;SDS011;9548;56.920;14.804;2023-03-14T14:38:57;3.03;;;0.75;;
18838;SDS011;9548;56.920;14.804;2023-03-14T14:41:26;4.50;;;0.60;;
18838;SDS011;9548;56.920;14.804;2023-03-14T14:43:56;2.88;;;0.52;;
18838;SDS011;9548;56.920;14.804;2023-03-14T14:46:25;1.65;;;0.63;;
18838;SDS011;9548;56.920;14.804;2023-03-14T14:48:56;5.05;;;1.13;;
18838;SDS011;9548;56.920;14.804;2023-03-14T14:51:30;5.95;;;0.98;;
18838;SDS011;9548;56.920;14.804;2023-03-14T14:54:05;4.57;;;1.00;;
18838;SDS011;9548;56.920;14.804;2023-03-14T14:56:37;7.07;;;0.90;;
18838;SDS011;9548;56.920;14.804;2023-03-14T14:59:05;9.10;;;1.13;;
18838;SDS011;9548;56.920;14.804;2023-03-14T15:01:34;5.75;;;0.80;;
18838;SDS011;9548;56.920;14.804;2023-03-14T15:04:08;7.53;;;1.05;;
18838;SDS011;9548;56.920;14.804;2023-03-14T15:06:38;10.55;;;1.10;;